Time;durP1;ratioP1;P1;durP2;ratioP2;P2;SDS_P1;SDS_P2;PMS_P1;PMS_P2;Temp;Humidity;BMP_temperature;BMP_pressure;BME280_temperature;BME280_humidity;BME280_pressure;Samples;Min_cycle;Max_cycle;Signal;HPM_P1;HPM_P2
2022/03/24 00:01:42;;;;;;;162.95;61.25;;;0.70;62.10;;;;;;5115026;28;20382;-78
2022/03/24 00:04:08;;;;;;;110.38;46.90;;;0.60;62.30;;;;;;5115038;28;20545;-78
2022/03/24 00:06:33;;;;;;;118.90;50.78;;;0.50;62.50;;;;;;5096902;28;20106;-78
2022/03/24 00:08:59;;;;;;;109.30;44.08;;;0.50;62.80;;;;;;5096662;28;20034;-79
2022/03/24 00:11:25;;;;;;;92.13;41.70;;;0.60;62.40;;;;;;5114824;28;20023;-78
2022/03/24 00:13:50;;;;;;;141.27;54.80;;;0.70;62.10;;;;;;5114887;28;20030;-78
2022/03/24 00:16:18;;;;;;;141.07;61.45;;;0.70;62.40;;;;;;5114786;28;20019;-78
2022/03/24 00:18:45;;;;;;;124.65;50.35;;;0.70;62.60;;;;;;5096507;28;20008;-79
2022/03/24 00:21:10;;;;;;;109.95;47.15;;;0.70;62.90;;;;;;5096199;28;20020;-78
2022/03/24 00:23:36;;;;;;;94.25;41.95;;;0.70;62.10;;;;;;5096355;28;20396;-78
2022/03/24 00:26:02;;;;;;;82.32;37.08;;;0.60;61.90;;;;;;5096501;28;20028;-78
2022/03/24 00:28:27;;;;;;;77.93;35.00;;;0.60;61.50;;;;;;5114637;28;20504;-78
2022/03/24 00:30:53;;;;;;;80.18;36.70;;;0.80;60.60;;;;;;5114371;28;20089;-79
2022/03/24 00:33:19;;;;;;;82.03;37.55;;;0.70;60.30;;;;;;5096233;28;20455;-78
2022/03/24 00:35:45;;;;;;;84.50;40.10;;;0.70;60.10;;;;;;5096060;28;20042;-78
2022/03/24 00:38:11;;;;;;;80.05;36.40;;;0.70;60.20;;;;;;5114469;28;20024;-78
2022/03/24 00:40:36;;;;;;;74.68;33.20;;;0.70;59.80;;;;;;5114169;28;20027;-78
2022/03/24 00:43:02;;;;;;;68.00;36.47;;;0.80;59.10;;;;;;5113711;28;20058;-78
2022/03/24 00:45:29;;;;;;;68.60;31.20;;;1.00;59.20;;;;;;5095885;28;20024;-78
2022/03/24 00:47:55;;;;;;;53.35;27.63;;;1.50;58.60;;;;;;5114152;28;20066;-78
2022/03/24 00:50:20;;;;;;;45.35;23.55;;;2.00;57.60;;;;;;5114059;28;20047;-79
2022/03/24 00:52:46;;;;;;;51.17;23.35;;;2.40;56.40;;;;;;5114282;28;20027;-78
2022/03/24 00:55:17;;;;;;;60.78;29.70;;;2.70;55.40;;;;;;5096005;28;20346;-76
2022/03/24 00:57:45;;;;;;;72.15;33.60;;;3.00;54.60;;;;;;5114039;28;20028;-75
2022/03/24 01:00:15;;;;;;;55.10;31.02;;;2.80;54.80;;;;;;5113829;28;20020;-76
2022/03/24 01:02:41;;;;;;;50.92;27.45;;;2.70;55.40;;;;;;5114071;28;20034;-76
2022/03/24 01:05:08;;;;;;;46.72;23.13;;;2.70;55.10;;;;;;5095571;28;20016;-76
2022/03/24 01:07:37;;;;;;;61.33;29.02;;;2.90;54.50;;;;;;5095705;28;20144;-76
2022/03/24 01:10:04;;;;;;;49.95;27.00;;;2.90;53.80;;;;;;5113606;28;20044;-76
2022/03/24 01:12:30;;;;;;;56.47;29.30;;;3.00;53.80;;;;;;5095641;28;20030;-76
2022/03/24 01:14:58;;;;;;;50.53;26.95;;;2.90;53.60;;;;;;5095731;28;20023;-76
2022/03/24 01:17:25;;;;;;;60.05;28.85;;;2.90;53.70;;;;;;5113914;28;20480;-75
2022/03/24 01:19:51;;;;;;;54.72;28.13;;;2.90;53.60;;;;;;5113639;28;20100;-76
2022/03/24 01:22:17;;;;;;;46.63;24.90;;;2.80;53.80;;;;;;5095251;28;20110;-76
2022/03/24 01:24:42;;;;;;;43.90;24.60;;;2.90;53.80;;;;;;5095487;28;20031;-76
2022/03/24 01:27:10;;;;;;;50.28;25.83;;;2.90;53.70;;;;;;5113608;28;20030;-76
2022/03/24 01:29:36;;;;;;;48.08;25.20;;;2.90;53.60;;;;;;5095407;28;20024;-76
2022/03/24 01:32:03;;;;;;;49.05;26.10;;;2.90;53.40;;;;;;5113558;28;20027;-76
2022/03/24 01:34:29;;;;;;;44.92;22.98;;;2.90;53.50;;;;;;5113675;28;20063;-76
2022/03/24 01:36:55;;;;;;;45.55;24.25;;;2.90;54.20;;;;;;5095331;28;20035;-76
2022/03/24 01:39:22;;;;;;;43.30;23.10;;;3.00;53.70;;;;;;5113510;28;20019;-76
2022/03/24 01:41:48;;;;;;;40.65;23.10;;;3.10;52.70;;;;;;5113185;28;20031;-75
2022/03/24 01:44:16;;;;;;;41.10;21.38;;;3.10;52.50;;;;;;5095220;28;20036;-76
2022/03/24 01:46:58;;;;;;;52.35;26.77;;;3.20;52.30;;;;;;5113548;28;20381;-76
2022/03/24 01:49:25;;;;;;;38.42;21.48;;;3.20;52.30;;;;;;5113590;28;20434;-76
2022/03/24 01:51:50;;;;;;;44.17;22.80;;;3.10;53.00;;;;;;5094799;28;20466;-76
2022/03/24 01:54:16;;;;;;;45.72;21.38;;;3.40;52.90;;;;;;5113830;28;20028;-76
2022/03/24 01:56:43;;;;;;;46.08;23.30;;;3.40;52.60;;;;;;5099186;28;20016;-76
2022/03/24 01:59:12;;;;;;;45.55;23.90;;;3.50;52.40;;;;;;5117407;28;20090;-77
2022/03/24 02:01:38;;;;;;;45.20;23.67;;;3.60;52.10;;;;;;5117157;28;20024;-76
2022/03/24 02:04:04;;;;;;;40.13;23.40;;;3.70;51.90;;;;;;5117415;28;20541;-76
2022/03/24 02:06:32;;;;;;;48.58;24.73;;;3.60;51.80;;;;;;5099210;28;20118;-76
2022/03/24 02:08:59;;;;;;;47.65;24.55;;;3.70;52.00;;;;;;5099120;28;20020;-76
2022/03/24 02:11:25;;;;;;;46.10;25.13;;;3.70;52.00;;;;;;5117035;28;20031;-76
2022/03/24 02:13:50;;;;;;;41.28;24.17;;;3.80;52.00;;;;;;5098929;28;20035;-76
2022/03/24 02:16:16;;;;;;;49.25;23.95;;;3.80;51.90;;;;;;5099042;28;20026;-76
2022/03/24 02:18:43;;;;;;;48.50;25.20;;;3.90;52.00;;;;;;5117305;28;20051;-76
2022/03/24 02:21:10;;;;;;;45.83;26.17;;;3.90;51.90;;;;;;5116859;28;20385;-76
2022/03/24 02:23:35;;;;;;;51.55;24.80;;;3.90;52.00;;;;;;5098854;28;20427;-77
2022/03/24 02:26:02;;;;;;;49.65;26.33;;;3.90;52.40;;;;;;5098743;28;20020;-76
2022/03/24 02:28:28;;;;;;;45.00;23.98;;;3.90;52.20;;;;;;5116982;28;20073;-76
2022/03/24 02:30:54;;;;;;;46.42;22.40;;;4.10;51.90;;;;;;5117030;28;20031;-76
2022/03/24 02:33:23;;;;;;;42.38;21.52;;;4.20;51.50;;;;;;5093503;28;20094;-76
2022/03/24 02:35:51;;;;;;;41.63;20.95;;;4.40;51.10;;;;;;5078334;28;20359;-76
2022/03/24 02:38:19;;;;;;;41.42;21.60;;;4.60;50.50;;;;;;5096499;28;20027;-76
2022/03/24 02:40:47;;;;;;;40.67;22.27;;;4.70;50.20;;;;;;5096377;28;20050;-77
2022/03/24 02:43:12;;;;;;;40.50;20.42;;;4.80;49.80;;;;;;5077808;28;20024;-77
2022/03/24 02:45:38;;;;;;;46.75;23.40;;;4.90;49.60;;;;;;5096373;28;20027;-76
2022/03/24 02:48:04;;;;;;;41.20;22.38;;;4.90;49.30;;;;;;5078142;28;20020;-77
2022/03/24 02:50:30;;;;;;;48.97;22.20;;;4.80;49.30;;;;;;5078123;28;20111;-76
2022/03/24 02:52:56;;;;;;;40.92;22.85;;;4.80;49.30;;;;;;5095877;28;20134;-76
2022/03/24 02:55:21;;;;;;;48.13;23.83;;;4.80;49.40;;;;;;5077915;28;20028;-75
2022/03/24 02:57:47;;;;;;;41.67;25.60;;;4.70;49.40;;;;;;5077825;28;20377;-75
2022/03/24 03:00:15;;;;;;;41.28;24.85;;;4.60;49.60;;;;;;5077853;28;20115;-76
2022/03/24 03:02:40;;;;;;;40.50;22.02;;;4.50;49.80;;;;;;5077491;28;20038;-76
2022/03/24 03:05:07;;;;;;;47.65;26.38;;;4.40;50.10;;;;;;5077823;28;20024;-76
2022/03/24 03:07:32;;;;;;;48.00;25.55;;;4.40;50.30;;;;;;5076691;28;20380;-76
2022/03/24 03:09:58;;;;;;;49.00;24.92;;;4.30;50.50;;;;;;5095605;28;20100;-76
2022/03/24 03:12:26;;;;;;;48.72;24.80;;;4.30;50.80;;;;;;5077366;28;20351;-76
2022/03/24 03:14:52;;;;;;;46.78;26.35;;;4.20;50.90;;;;;;5095721;28;20381;-77
2022/03/24 03:17:17;;;;;;;44.35;24.52;;;4.20;51.10;;;;;;5095749;28;20024;-76
2022/03/24 03:19:45;;;;;;;44.60;23.23;;;4.20;51.20;;;;;;5095557;28;20382;-76
2022/03/24 03:22:11;;;;;;;43.45;22.00;;;4.10;51.40;;;;;;5095329;28;20016;-75
2022/03/24 03:24:39;;;;;;;48.20;24.35;;;4.20;51.60;;;;;;5077373;28;20119;-76
2022/03/24 03:27:05;;;;;;;45.35;23.95;;;4.10;51.70;;;;;;5077441;28;20021;-76
2022/03/24 03:29:32;;;;;;;45.50;24.35;;;4.10;51.70;;;;;;5077508;28;20024;-76
2022/03/24 03:31:57;;;;;;;41.95;22.52;;;4.10;51.80;;;;;;5095311;28;20028;-76
2022/03/24 03:34:24;;;;;;;43.70;26.15;;;4.10;52.00;;;;;;5086975;28;20461;-76
2022/03/24 03:36:52;;;;;;;44.58;24.77;;;4.10;52.00;;;;;;5106941;28;20494;-76
2022/03/24 03:39:17;;;;;;;39.80;22.92;;;4.10;52.00;;;;;;5097413;28;20043;-76
2022/03/24 03:41:43;;;;;;;47.08;23.33;;;4.10;52.10;;;;;;5115491;28;20485;-76
2022/03/24 03:44:08;;;;;;;46.83;20.83;;;4.10;52.10;;;;;;5115432;28;20040;-76
2022/03/24 03:46:35;;;;;;;48.42;24.55;;;4.20;52.00;;;;;;5115548;28;20049;-76
2022/03/24 03:49:01;;;;;;;51.13;24.30;;;4.10;52.10;;;;;;5115562;28;20015;-76
2022/03/24 03:51:27;;;;;;;43.13;21.92;;;4.10;52.10;;;;;;5115364;28;20020;-76
2022/03/24 03:53:53;;;;;;;44.25;23.98;;;4.10;52.10;;;;;;5113760;28;20481;-76
2022/03/24 03:56:19;;;;;;;42.22;21.10;;;4.10;52.10;;;;;;5115235;28;20396;-76
2022/03/24 03:58:45;;;;;;;45.78;23.80;;;4.10;52.20;;;;;;5115322;28;20098;-76
2022/03/24 04:01:10;;;;;;;46.40;22.80;;;4.10;52.30;;;;;;5113952;28;20085;-77
2022/03/24 04:03:39;;;;;;;46.50;21.40;;;4.10;52.40;;;;;;5114858;28;20042;-76
2022/03/24 04:06:09;;;;;;;49.97;26.30;;;4.10;52.40;;;;;;5096907;28;20481;-76
2022/03/24 04:08:36;;;;;;;46.30;24.40;;;4.10;52.60;;;;;;5115214;28;20024;-77
2022/03/24 04:11:03;;;;;;;49.47;24.08;;;4.10;52.70;;;;;;5115024;28;20027;-77
2022/03/24 04:13:28;;;;;;;51.00;27.33;;;4.00;52.90;;;;;;5114795;28;20024;-76
2022/03/24 04:15:54;;;;;;;46.70;23.98;;;4.00;53.10;;;;;;5114858;28;20042;-76
2022/03/24 04:18:22;;;;;;;46.28;25.17;;;3.90;53.20;;;;;;5095654;28;20070;-76
2022/03/24 04:20:48;;;;;;;48.45;26.73;;;3.90;53.50;;;;;;5096646;28;20012;-76
2022/03/24 04:23:14;;;;;;;44.90;23.05;;;3.80;53.50;;;;;;5096171;28;20039;-76
2022/03/24 04:25:40;;;;;;;51.05;24.00;;;3.80;53.70;;;;;;5096437;28;20028;-76
2022/03/24 04:28:06;;;;;;;45.95;25.40;;;3.70;53.90;;;;;;5096413;28;20028;-76
2022/03/24 04:30:34;;;;;;;48.75;24.98;;;3.70;54.10;;;;;;5114681;28;20518;-76
2022/03/24 04:33:00;;;;;;;45.90;26.20;;;3.70;54.20;;;;;;5113233;28;20028;-76
2022/03/24 04:35:26;;;;;;;48.83;25.65;;;3.60;54.10;;;;;;5096191;28;20012;-76
2022/03/24 04:37:52;;;;;;;43.90;25.35;;;3.60;54.20;;;;;;5114306;28;20028;-76
2022/03/24 04:40:19;;;;;;;46.33;23.20;;;3.50;54.60;;;;;;5096160;28;20024;-77
2022/03/24 04:42:46;;;;;;;44.47;23.58;;;3.40;54.70;;;;;;5114433;28;20115;-76
2022/03/24 04:45:13;;;;;;;52.13;25.85;;;3.40;55.10;;;;;;5114143;28;20484;-76
2022/03/24 04:47:40;;;;;;;43.22;25.00;;;3.30;55.00;;;;;;5114213;28;20020;-76
2022/03/24 04:50:13;;;;;;;48.80;25.20;;;3.30;55.20;;;;;;5070670;28;20749;-78
2022/03/24 04:52:38;;;;;;;48.53;25.77;;;3.20;55.50;;;;;;5070568;28;20055;-78
2022/03/24 04:55:07;;;;;;;49.08;25.48;;;3.10;55.70;;;;;;5070275;28;20030;-79
2022/03/24 04:57:32;;;;;;;44.50;23.10;;;3.00;56.20;;;;;;5068746;28;20112;-78
2022/03/24 04:59:58;;;;;;;56.22;23.58;;;3.00;56.00;;;;;;5068743;28;20502;-78
2022/03/24 05:02:24;;;;;;;47.97;25.20;;;2.90;56.30;;;;;;5069030;28;20518;-78
2022/03/24 05:04:50;;;;;;;47.65;26.02;;;2.80;56.20;;;;;;5068706;28;20107;-78
2022/03/24 05:07:16;;;;;;;46.70;23.50;;;2.80;55.90;;;;;;5068932;28;20063;-78
2022/03/24 05:09:42;;;;;;;42.67;24.25;;;2.70;56.40;;;;;;5068667;28;20033;-78
2022/03/24 05:12:08;;;;;;;46.97;25.63;;;2.60;56.80;;;;;;5070037;28;20025;-78
2022/03/24 05:14:33;;;;;;;47.42;25.33;;;2.60;57.10;;;;;;5070058;28;20025;-78
2022/03/24 05:17:00;;;;;;;48.42;24.38;;;2.60;57.20;;;;;;5068661;28;20043;-77
2022/03/24 05:19:26;;;;;;;52.17;24.50;;;2.60;57.20;;;;;;5068747;28;20079;-77
2022/03/24 05:21:51;;;;;;;48.15;25.40;;;2.60;57.00;;;;;;5068382;28;20033;-78
2022/03/24 05:24:17;;;;;;;49.35;24.45;;;2.60;57.20;;;;;;5069616;28;20025;-78
2022/03/24 05:26:43;;;;;;;53.13;24.13;;;2.70;57.60;;;;;;5069865;28;20029;-78
2022/03/24 05:29:09;;;;;;;48.67;23.75;;;2.70;57.70;;;;;;5068419;28;20426;-78
2022/03/24 05:31:34;;;;;;;49.90;25.92;;;2.80;57.50;;;;;;5069679;28;20508;-77
2022/03/24 05:34:00;;;;;;;46.53;23.92;;;2.80;57.50;;;;;;5068313;28;20386;-78
2022/03/24 05:36:25;;;;;;;46.13;24.17;;;2.90;57.80;;;;;;5069222;28;20075;-78
2022/03/24 05:38:51;;;;;;;42.22;23.42;;;3.00;57.80;;;;;;5068347;28;20025;-78
2022/03/24 05:41:17;;;;;;;52.63;26.08;;;3.10;57.90;;;;;;5069521;28;20104;-78
2022/03/24 05:44:02;;;;;;;45.22;23.88;;;3.20;57.70;;;;;;5069296;28;20020;-79
2022/03/24 05:46:29;;;;;;;47.60;25.33;;;3.30;57.10;;;;;;5067893;28;20089;-78
2022/03/24 05:48:55;;;;;;;49.67;24.95;;;3.40;56.80;;;;;;5067937;28;20060;-78
2022/03/24 05:51:21;;;;;;;49.75;23.02;;;3.50;56.80;;;;;;5061033;28;20148;-78
2022/03/24 05:53:46;;;;;;;49.20;24.33;;;3.70;56.50;;;;;;5048143;28;20029;-78
2022/03/24 05:56:12;;;;;;;45.30;23.27;;;3.80;57.30;;;;;;5048975;28;20036;-78
2022/03/24 05:58:37;;;;;;;46.25;23.35;;;3.90;56.30;;;;;;5049323;28;20105;-79
2022/03/24 06:01:05;;;;;;;54.65;25.92;;;3.90;56.30;;;;;;5037495;28;20045;-79
2022/03/24 06:03:31;;;;;;;43.92;24.23;;;4.00;56.30;;;;;;5035899;28;20040;-79
2022/03/24 06:05:58;;;;;;;49.40;25.27;;;4.00;56.30;;;;;;5034266;28;20116;-79
2022/03/24 06:08:24;;;;;;;51.10;26.00;;;4.20;56.20;;;;;;5035819;28;20038;-79
2022/03/24 06:10:51;;;;;;;48.13;24.05;;;4.30;56.50;;;;;;5048150;28;20115;-79
2022/03/24 06:13:17;;;;;;;43.88;24.13;;;4.40;55.90;;;;;;5054411;28;20017;-79
2022/03/24 06:15:43;;;;;;;50.38;25.38;;;4.50;55.70;;;;;;5054092;28;20452;-79
2022/03/24 06:18:08;;;;;;;49.70;24.85;;;4.70;55.70;;;;;;5054226;28;20540;-78
2022/03/24 06:20:34;;;;;;;50.70;25.33;;;4.80;55.30;;;;;;5054285;28;20071;-79
2022/03/24 06:22:59;;;;;;;48.42;24.55;;;5.00;55.10;;;;;;5054164;28;20021;-79
2022/03/24 06:25:25;;;;;;;46.72;24.75;;;5.10;55.00;;;;;;5050955;28;20033;-80
2022/03/24 06:27:51;;;;;;;47.15;25.15;;;5.40;54.80;;;;;;5035064;28;20021;-80
2022/03/24 06:30:17;;;;;;;46.42;26.25;;;5.60;54.50;;;;;;5034116;28;20108;-79
2022/03/24 06:32:43;;;;;;;54.92;25.60;;;5.80;53.40;;;;;;5035306;28;20076;-79
2022/03/24 06:35:09;;;;;;;43.47;24.45;;;6.10;52.80;;;;;;5034764;28;20022;-79
2022/03/24 06:37:41;;;;;;;41.83;24.30;;;6.30;52.10;;;;;;5053817;28;20162;-80
2022/03/24 06:40:13;;;;;;;45.63;25.10;;;6.50;51.10;;;;;;5041644;28;20025;-78
2022/03/24 06:42:40;;;;;;;46.20;23.20;;;6.60;50.60;;;;;;5040555;28;20018;-80
2022/03/24 06:45:08;;;;;;;44.72;23.83;;;6.80;49.60;;;;;;5042730;28;20013;-80
2022/03/24 06:47:34;;;;;;;47.67;24.38;;;6.90;49.10;;;;;;5042391;28;20033;-77
2022/03/24 06:49:59;;;;;;;48.20;23.80;;;7.00;48.10;;;;;;5043433;28;20053;-79
2022/03/24 06:52:25;;;;;;;42.90;23.27;;;7.10;48.00;;;;;;5043737;28;20017;-78
2022/03/24 06:54:51;;;;;;;43.05;23.02;;;7.10;47.20;;;;;;5050739;28;20373;-79
2022/03/24 06:57:16;;;;;;;38.92;21.33;;;7.30;47.40;;;;;;5050389;28;20017;-79
2022/03/24 06:59:43;;;;;;;39.22;20.30;;;7.30;46.40;;;;;;5044490;28;20080;-79
2022/03/24 07:02:09;;;;;;;46.08;22.35;;;7.50;45.60;;;;;;5045622;28;20039;-80
2022/03/24 07:04:35;;;;;;;37.55;20.73;;;7.60;44.60;;;;;;5046295;28;20025;-80
2022/03/24 07:07:01;;;;;;;41.20;20.75;;;7.70;44.30;;;;;;5054102;28;20075;-79
2022/03/24 07:09:27;;;;;;;35.47;18.15;;;7.90;44.10;;;;;;5054565;28;20056;-81
2022/03/24 07:11:52;;;;;;;38.35;17.98;;;8.10;43.60;;;;;;5052197;28;20486;-79
2022/03/24 07:14:18;;;;;;;32.75;16.27;;;8.10;42.10;;;;;;5046305;28;20113;-78
2022/03/24 07:16:44;;;;;;;32.25;19.08;;;8.10;41.60;;;;;;5031792;28;20120;-79
2022/03/24 07:19:09;;;;;;;37.72;20.02;;;8.20;41.80;;;;;;5035765;28;20091;-80
2022/03/24 07:21:36;;;;;;;35.97;18.30;;;8.40;42.30;;;;;;5032421;28;20402;-80
2022/03/24 07:24:01;;;;;;;36.13;19.58;;;8.40;42.60;;;;;;5038642;28;20051;-79
2022/03/24 07:26:27;;;;;;;33.17;19.88;;;8.40;41.80;;;;;;5033669;28;20438;-80
2022/03/24 07:28:53;;;;;;;37.25;19.85;;;8.60;43.10;;;;;;5033002;28;20531;-80
2022/03/24 07:31:19;;;;;;;38.10;22.52;;;8.70;42.70;;;;;;5039788;28;20111;-79
2022/03/24 07:33:47;;;;;;;35.92;20.45;;;8.80;42.80;;;;;;5052478;28;20033;-80
2022/03/24 07:36:13;;;;;;;34.10;20.30;;;8.80;43.00;;;;;;5072345;28;20020;-79
2022/03/24 07:38:38;;;;;;;31.23;19.00;;;8.80;41.90;;;;;;5071399;28;20485;-79
2022/03/24 07:41:05;;;;;;;38.03;20.65;;;8.90;42.40;;;;;;5072290;28;20028;-80
2022/03/24 07:43:30;;;;;;;37.08;20.58;;;8.90;42.40;;;;;;5072698;28;20482;-79
2022/03/24 07:45:56;;;;;;;35.47;20.38;;;9.10;42.60;;;;;;5056745;28;20024;-80
2022/03/24 07:48:25;;;;;;;37.33;20.13;;;9.20;41.20;;;;;;5040297;28;20437;-79
2022/03/24 07:50:53;;;;;;;36.15;20.38;;;9.20;40.10;;;;;;5043340;28;20047;-79
2022/03/24 07:53:23;;;;;;;32.78;20.50;;;9.30;40.40;;;;;;5044257;28;20530;-79
2022/03/24 07:55:49;;;;;;;35.97;18.40;;;9.40;40.90;;;;;;5040928;28;20021;-79
2022/03/24 07:58:17;;;;;;;36.38;19.33;;;9.50;40.40;;;;;;5043834;28;20029;-80
2022/03/24 08:00:43;;;;;;;33.42;19.55;;;9.60;40.70;;;;;;5041951;28;20017;-80
2022/03/24 08:03:11;;;;;;;32.47;18.90;;;9.70;41.30;;;;;;5040855;28;20033;-80
2022/03/24 08:05:37;;;;;;;37.25;21.13;;;9.70;39.60;;;;;;5042405;28;20017;-80
2022/03/24 08:08:07;;;;;;;35.08;19.75;;;9.70;39.40;;;;;;5041322;28;20115;-80
2022/03/24 08:10:33;;;;;;;34.65;20.17;;;9.80;39.80;;;;;;5042718;28;20398;-80
2022/03/24 08:12:58;;;;;;;33.85;19.73;;;9.80;39.20;;;;;;5042234;28;20044;-80
2022/03/24 08:15:24;;;;;;;25.77;16.83;;;9.80;39.40;;;;;;5042623;28;20028;-80
2022/03/24 08:17:50;;;;;;;30.35;17.88;;;9.80;38.20;;;;;;5043407;28;20021;-80
2022/03/24 08:20:15;;;;;;;33.83;19.23;;;9.90;39.10;;;;;;5041799;28;20368;-80
2022/03/24 08:22:41;;;;;;;25.00;16.05;;;9.90;38.80;;;;;;5042680;28;20021;-80
2022/03/24 08:25:09;;;;;;;38.15;18.63;;;10.10;38.00;;;;;;5039769;28;20418;-80
2022/03/24 08:27:37;;;;;;;31.13;18.80;;;10.10;37.80;;;;;;5031911;28;20021;-79
2022/03/24 08:30:05;;;;;;;30.38;18.40;;;10.20;38.10;;;;;;5033153;28;20086;-79
2022/03/24 08:32:30;;;;;;;32.58;19.65;;;10.30;38.60;;;;;;5032020;28;20079;-79
2022/03/24 08:34:56;;;;;;;31.65;18.40;;;10.20;38.10;;;;;;5033199;28;20472;-80
2022/03/24 08:37:21;;;;;;;29.23;16.65;;;10.30;38.30;;;;;;5033166;28;20395;-81
2022/03/24 08:39:47;;;;;;;26.17;16.08;;;10.40;37.70;;;;;;5041713;28;20013;-79
2022/03/24 08:42:13;;;;;;;31.00;16.48;;;10.50;37.40;;;;;;5051624;28;20112;-80
2022/03/24 08:44:39;;;;;;;28.25;16.35;;;10.60;36.80;;;;;;5051743;28;20521;-80
2022/03/24 08:47:05;;;;;;;26.73;15.13;;;10.60;36.40;;;;;;5053019;28;20095;-80
2022/03/24 08:49:31;;;;;;;29.45;16.10;;;10.70;36.20;;;;;;5052565;28;20506;-80
2022/03/24 08:51:57;;;;;;;29.05;15.65;;;10.80;35.60;;;;;;5051398;28;20079;-80
2022/03/24 08:54:23;;;;;;;24.40;15.23;;;10.90;35.50;;;;;;5042801;28;20021;-81
2022/03/24 08:56:48;;;;;;;25.25;15.43;;;11.10;35.90;;;;;;5041516;28;20028;-80
2022/03/24 08:59:14;;;;;;;23.35;12.93;;;11.20;35.30;;;;;;5042445;28;20038;-80
2022/03/24 09:01:43;;;;;;;25.38;12.10;;;11.20;34.10;;;;;;5031931;28;20029;-80
2022/03/24 09:04:08;;;;;;;23.20;13.20;;;11.30;33.80;;;;;;5033084;28;20364;-81
2022/03/24 09:06:34;;;;;;;20.30;12.85;;;11.30;33.60;;;;;;5045959;28;20048;-80
2022/03/24 09:09:00;;;;;;;19.45;12.05;;;11.40;33.00;;;;;;5052699;28;20505;-80
2022/03/24 09:11:26;;;;;;;19.67;11.38;;;11.40;33.00;;;;;;5051622;28;20394;-79
2022/03/24 09:13:52;;;;;;;20.60;12.38;;;11.50;32.50;;;;;;5052709;28;20028;-80
2022/03/24 09:16:17;;;;;;;19.40;12.45;;;11.50;32.60;;;;;;5051314;28;20491;-79
2022/03/24 09:18:43;;;;;;;15.65;9.50;;;11.60;32.30;;;;;;5051289;28;20080;-80
2022/03/24 09:21:09;;;;;;;16.48;10.05;;;11.50;31.00;;;;;;5051215;28;20021;-81
2022/03/24 09:23:35;;;;;;;14.38;9.10;;;11.70;31.20;;;;;;5051473;28;20111;-80
2022/03/24 09:26:01;;;;;;;16.02;9.02;;;11.70;29.80;;;;;;5049139;28;20490;-79
2022/03/24 09:28:27;;;;;;;15.05;9.50;;;11.90;30.00;;;;;;5049952;28;20054;-79
2022/03/24 09:30:55;;;;;;;20.58;8.82;;;12.00;29.90;;;;;;5050296;28;20075;-79
2022/03/24 09:33:21;;;;;;;12.73;8.00;;;12.00;29.70;;;;;;5047679;28;20025;-76
2022/03/24 09:35:48;;;;;;;14.55;8.52;;;12.10;29.60;;;;;;5041122;28;20016;-76
2022/03/24 09:38:14;;;;;;;15.95;7.85;;;12.10;29.50;;;;;;5037232;28;20470;-76
2022/03/24 09:40:40;;;;;;;15.55;8.90;;;12.10;29.10;;;;;;5036321;28;20032;-77
2022/03/24 09:43:06;;;;;;;12.85;8.27;;;12.10;29.30;;;;;;5035929;28;20025;-75
2022/03/24 09:45:33;;;;;;;11.63;7.75;;;12.20;29.50;;;;;;5042596;28;20029;-77
2022/03/24 09:47:59;;;;;;;14.63;8.85;;;12.10;29.20;;;;;;5044224;28;20032;-77
2022/03/24 09:50:25;;;;;;;14.57;8.98;;;12.30;29.70;;;;;;5044663;28;20103;-77
2022/03/24 09:52:52;;;;;;;17.73;10.48;;;12.20;28.30;;;;;;5045885;28;20487;-77
2022/03/24 09:55:19;;;;;;;14.60;8.38;;;12.40;28.90;;;;;;5044069;28;20021;-77
2022/03/24 09:57:46;;;;;;;12.15;8.13;;;12.30;29.00;;;;;;5055807;28;20055;-79
2022/03/24 10:00:13;;;;;;;13.85;8.15;;;12.30;29.30;;;;;;5054031;28;20039;-77
2022/03/24 10:02:39;;;;;;;15.07;8.15;;;12.40;28.20;;;;;;5054283;28;20031;-77
2022/03/24 10:05:06;;;;;;;9.98;7.55;;;12.40;28.10;;;;;;5055907;28;20060;-76
2022/03/24 10:07:46;;;;;;;15.48;8.65;;;12.40;27.60;;;;;;5055028;28;20056;-76
2022/03/24 10:10:34;;;;;;;17.42;8.77;;;12.50;29.10;;;;;;5052146;28;20032;-77
2022/03/24 10:13:01;;;;;;;15.13;6.70;;;12.60;29.10;;;;;;5052372;28;20017;-76
2022/03/24 10:15:28;;;;;;;11.98;6.90;;;12.30;26.40;;;;;;5052221;28;20119;-77
2022/03/24 10:17:56;;;;;;;10.15;6.65;;;12.30;25.00;;;;;;5053469;28;20059;-76
2022/03/24 10:20:23;;;;;;;10.93;7.07;;;12.40;24.60;;;;;;5053373;28;20032;-76
2022/03/24 10:22:58;;;;;;;13.93;7.22;;;12.50;24.70;;;;;;5052792;28;20066;-76
2022/03/24 10:25:26;;;;;;;14.65;10.20;;;12.40;24.70;;;;;;5055675;28;20060;-76
2022/03/24 10:28:17;;;;;;;11.23;6.88;;;12.20;24.80;;;;;;5054188;28;20051;-76
2022/03/24 10:30:47;;;;;;;11.27;8.48;;;12.30;24.50;;;;;;5051835;28;20132;-76
2022/03/24 10:33:33;;;;;;;11.45;7.40;;;12.40;24.40;;;;;;5035154;28;20034;-77
2022/03/24 10:36:08;;;;;;;11.00;6.25;;;12.40;24.00;;;;;;5034053;28;20032;-77
2022/03/24 10:38:36;;;;;;;12.77;7.15;;;12.60;23.70;;;;;;5034008;28;20571;-77
2022/03/24 10:41:19;;;;;;;12.82;7.25;;;12.60;23.80;;;;;;5034835;28;20021;-77
2022/03/24 10:43:47;;;;;;;12.85;7.10;;;12.70;24.60;;;;;;5035099;28;20017;-76
2022/03/24 10:46:18;;;;;;;13.15;6.95;;;12.80;25.20;;;;;;5033998;28;20442;-77
2022/03/24 10:48:47;;;;;;;13.48;8.43;;;13.00;25.80;;;;;;5035067;28;20132;-76
2022/03/24 10:51:30;;;;;;;14.30;7.57;;;12.80;25.70;;;;;;5034611;28;20076;-77
2022/03/24 10:54:15;;;;;;;14.27;7.93;;;12.70;25.60;;;;;;5033747;28;20036;-77
2022/03/24 10:57:03;;;;;;;12.98;6.70;;;12.70;25.80;;;;;;5033729;28;20029;-76
2022/03/24 10:59:37;;;;;;;14.95;7.10;;;12.50;24.90;;;;;;5034974;28;20033;-76
2022/03/24 11:02:04;;;;;;;10.98;6.72;;;12.60;24.80;;;;;;5033649;28;20049;-76
2022/03/24 11:04:30;;;;;;;17.90;6.60;;;12.60;25.30;;;;;;5034956;28;20487;-76
2022/03/24 11:06:56;;;;;;;10.88;6.57;;;12.80;25.00;;;;;;5033509;28;20467;-76
2022/03/24 11:09:28;;;;;;;9.43;6.40;;;12.60;25.30;;;;;;5033518;28;20037;-77
2022/03/24 11:12:26;;;;;;;5.72;4.43;;;12.70;25.20;;;;;;5034327;28;20021;-76
2022/03/24 11:14:54;;;;;;;9.80;5.32;;;12.70;24.00;;;;;;5034733;28;20079;-76
2022/03/24 11:17:23;;;;;;;8.25;5.72;;;12.60;24.80;;;;;;5034585;28;20553;-76
2022/03/24 11:20:03;;;;;;;11.48;6.07;;;12.70;25.00;;;;;;5033110;28;20056;-75
2022/03/24 11:22:53;;;;;;;10.27;5.88;;;12.80;24.90;;;;;;5032696;28;20017;-76
2022/03/24 11:25:20;;;;;;;9.88;5.68;;;12.90;25.10;;;;;;5030945;28;20041;-75
2022/03/24 11:27:46;;;;;;;8.45;5.63;;;13.00;25.70;;;;;;5034293;28;20410;-76
2022/03/24 11:30:14;;;;;;;11.98;5.90;;;13.00;26.10;;;;;;5032703;28;20513;-76
2022/03/24 11:32:47;;;;;;;11.65;6.10;;;13.20;26.80;;;;;;5033024;28;20028;-75
2022/03/24 11:35:13;;;;;;;12.55;5.63;;;13.30;27.10;;;;;;5034387;28;20021;-77
2022/03/24 11:37:40;;;;;;;10.68;5.38;;;13.40;27.10;;;;;;5032864;28;20116;-76
2022/03/24 11:40:10;;;;;;;9.70;6.15;;;13.40;27.10;;;;;;5034067;28;20465;-76
2022/03/24 11:43:01;;;;;;;9.57;4.90;;;13.30;27.30;;;;;;5032686;28;20055;-76
2022/03/24 11:45:34;;;;;;;10.18;5.70;;;13.10;27.60;;;;;;5032934;28;20108;-76
2022/03/24 11:48:02;;;;;;;9.93;5.65;;;13.20;27.80;;;;;;5033976;28;20021;-76
2022/03/24 11:50:34;;;;;;;7.10;4.97;;;13.30;28.20;;;;;;5032481;28;20034;-76
2022/03/24 11:53:16;;;;;;;8.25;5.32;;;13.40;28.50;;;;;;5032594;28;20055;-76
2022/03/24 11:56:04;;;;;;;7.68;5.22;;;13.20;28.40;;;;;;5033920;28;20072;-76
2022/03/24 11:58:38;;;;;;;8.73;5.15;;;13.20;28.50;;;;;;5031913;28;20091;-75
2022/03/24 12:01:19;;;;;;;14.98;5.90;;;13.20;28.40;;;;;;5033617;28;20040;-76
2022/03/24 12:03:54;;;;;;;5.55;4.18;;;13.30;28.80;;;;;;5032466;28;20037;-77
2022/03/24 12:06:40;;;;;;;16.33;5.72;;;13.40;28.90;;;;;;5032486;28;20036;-75
2022/03/24 12:09:06;;;;;;;11.57;4.28;;;13.50;29.00;;;;;;5033479;28;20038;-76
2022/03/24 12:11:32;;;;;;;8.57;3.45;;;13.50;28.60;;;;;;5033293;28;20020;-75
2022/03/24 12:14:06;;;;;;;5.28;3.63;;;13.60;28.60;;;;;;5032128;28;20025;-75
2022/03/24 12:16:34;;;;;;;12.23;4.07;;;13.70;29.10;;;;;;5032318;28;20036;-76
2022/03/24 12:19:00;;;;;;;7.32;4.03;;;13.50;29.50;;;;;;5032165;28;20029;-76
2022/03/24 12:21:27;;;;;;;8.70;3.97;;;13.20;29.90;;;;;;5031817;28;20040;-76
2022/03/24 12:24:02;;;;;;;7.22;3.85;;;13.40;30.20;;;;;;5031952;28;20026;-75
2022/03/24 12:26:35;;;;;;;8.45;4.60;;;13.50;30.10;;;;;;5031762;28;20029;-75
2022/03/24 12:29:15;;;;;;;9.30;3.88;;;13.50;30.60;;;;;;5031820;28;20033;-77
2022/03/24 12:31:57;;;;;;;19.60;4.90;;;13.60;31.30;;;;;;5031498;28;20018;-77
2022/03/24 12:34:46;;;;;;;6.97;4.45;;;13.60;31.50;;;;;;5047368;28;20108;-76
2022/03/24 12:37:27;;;;;;;5.40;3.28;;;13.60;31.60;;;;;;5039414;28;20037;-76
2022/03/24 12:40:09;;;;;;;4.63;3.28;;;13.50;32.20;;;;;;5028251;28;20064;-76